createdAt,value
2023-03-16T00:00:56.854Z,100939.75
2023-03-16T00:03:24.679Z,100953.41
2023-03-16T00:05:54.295Z,100949.88
2023-03-16T00:08:24.355Z,100942.91
2023-03-16T00:10:54.267Z,100944.56
2023-03-16T00:13:24.737Z,100943.66
2023-03-16T00:15:53.446Z,100941.13
2023-03-16T00:18:22.540Z,100943.66
2023-03-16T00:20:53.439Z,100947.09
2023-03-16T00:23:27.602Z,100941.22
2023-03-16T00:26:02.051Z,100953.97
2023-03-16T00:28:34.607Z,100942.72
2023-03-16T00:31:02.934Z,100949.88
2023-03-16T00:33:35.325Z,100947.34
2023-03-16T00:36:09.377Z,100957.88
2023-03-16T00:38:39.504Z,100956.22
2023-03-16T00:41:09.639Z,100959.00
2023-03-16T00:43:41.699Z,100953.97
2023-03-16T00:46:11.520Z,100946.28
2023-03-16T00:48:42.557Z,100948.03
2023-03-16T00:51:13.673Z,100943.66
2023-03-16T00:53:43.247Z,100948.75
2023-03-16T00:56:13.781Z,100942.63
2023-03-16T00:58:43.049Z,100930.63
2023-03-16T01:01:14.184Z,100930.34
2023-03-16T01:03:42.472Z,100932.09
2023-03-16T01:06:12.458Z,100925.13
2023-03-16T01:08:41.851Z,100919.16
2023-03-16T01:11:12.730Z,100916.78
2023-03-16T01:13:41.393Z,100922.06
2023-03-16T01:16:11.189Z,100911.81
2023-03-16T01:18:41.466Z,100915.56
2023-03-16T01:21:13.728Z,100924.63
2023-03-16T01:23:42.839Z,100917.06
2023-03-16T01:26:12.270Z,100911.22
2023-03-16T01:28:40.267Z,100916.59
2023-03-16T01:31:10.151Z,100916.69
2023-03-16T01:33:40.340Z,100914.28
2023-03-16T01:36:13.559Z,100921.34
2023-03-16T01:38:51.124Z,100914.56
2023-03-16T01:41:20.413Z,100914.69
2023-03-16T01:43:48.157Z,100920.06
2023-03-16T01:46:20.067Z,100914.09
2023-03-16T01:49:12.299Z,100902.00
2023-03-16T01:51:45.324Z,100897.00
2023-03-16T01:54:21.841Z,100899.69
2023-03-16T01:56:58.371Z,100893.00
2023-03-16T01:59:32.326Z,100877.66
2023-03-16T02:02:03.035Z,100864.16
2023-03-16T02:04:43.591Z,100863.31
2023-03-16T02:07:17.127Z,100866.94
2023-03-16T02:09:49.568Z,100857.56
2023-03-16T02:12:20.332Z,100851.69
2023-03-16T02:14:53.193Z,100850.84
2023-03-16T02:17:24.880Z,100843.06
2023-03-16T02:20:08.811Z,100840.56
2023-03-16T02:22:42.359Z,100836.16
2023-03-16T02:25:11.222Z,100836.38
2023-03-16T02:27:47.321Z,100834.88
2023-03-16T02:30:18.498Z,100838.59
2023-03-16T02:33:02.428Z,100844.94
2023-03-16T02:35:30.245Z,100843.34
2023-03-16T02:37:58.139Z,100845.28
2023-03-16T02:40:32.917Z,100843.63
2023-03-16T02:43:08.073Z,100844.63
2023-03-16T02:45:46.186Z,100834.22
2023-03-16T02:48:24.435Z,100827.06
2023-03-16T02:50:54.559Z,100825.13
2023-03-16T02:53:22.588Z,100830.13
2023-03-16T02:55:50.825Z,100827.53
2023-03-16T02:58:19.265Z,100819.63
2023-03-16T03:00:49.249Z,100821.22
2023-03-16T03:03:18.892Z,100827.19
2023-03-16T03:05:46.737Z,100826.88
2023-03-16T03:08:14.783Z,100810.97
2023-03-16T03:10:42.692Z,100808.84
2023-03-16T03:13:10.923Z,100805.97
2023-03-16T03:15:39.124Z,100799.44
2023-03-16T03:18:12.274Z,100805.00
2023-03-16T03:20:40.914Z,100804.63
2023-03-16T03:23:08.729Z,100809.34
2023-03-16T03:25:36.431Z,100814.25
2023-03-16T03:28:06.457Z,100813.97
2023-03-16T03:30:34.282Z,100806.34
2023-03-16T03:33:04.324Z,100811.28
2023-03-16T03:35:33.472Z,100817.88
2023-03-16T03:38:01.233Z,100817.66
2023-03-16T03:40:29.477Z,100817.38
2023-03-16T03:43:00.281Z,100809.34
2023-03-16T03:45:28.940Z,100806.56
2023-03-16T03:47:56.792Z,100808.75
2023-03-16T03:50:25.538Z,100813.88
2023-03-16T03:53:24.034Z,100810.34
2023-03-16T03:56:20.918Z,100803.06
2023-03-16T03:58:48.886Z,100792.44
2023-03-16T04:01:24.259Z,100800.03
2023-03-16T04:03:55.897Z,100790.56
2023-03-16T04:06:23.858Z,100792.97
2023-03-16T04:08:54.199Z,100790.28
2023-03-16T04:11:26.018Z,100780.59
2023-03-16T04:13:54.373Z,100782.34
2023-03-16T04:16:22.490Z,100789.25
2023-03-16T04:18:54.594Z,100790.69
2023-03-16T04:21:24.365Z,100788.72
2023-03-16T04:23:56.576Z,100800.09
2023-03-16T04:26:37.322Z,100804.34
2023-03-16T04:29:05.894Z,100803.31
2023-03-16T04:31:35.509Z,100803.22
2023-03-16T04:34:03.619Z,100800.44
2023-03-16T04:36:33.432Z,100798.53
2023-03-16T04:39:04.684Z,100790.63
2023-03-16T04:41:32.863Z,100788.66
2023-03-16T04:44:07.994Z,100781.78
2023-03-16T04:46:36.967Z,100783.03
2023-03-16T04:49:11.337Z,100791.38
2023-03-16T04:51:42.462Z,100787.63
2023-03-16T04:54:17.238Z,100800.13
2023-03-16T04:56:45.328Z,100792.84
2023-03-16T04:59:35.650Z,100797.75
2023-03-16T05:02:20.009Z,100793.88
2023-03-16T05:04:48.804Z,100775.75
2023-03-16T05:07:17.266Z,100785.53
2023-03-16T05:09:51.254Z,100778.25
2023-03-16T05:12:19.682Z,100775.31
2023-03-16T05:14:50.217Z,100772.50
2023-03-16T05:17:26.059Z,100778.13
2023-03-16T05:19:54.465Z,100778.63
2023-03-16T05:22:22.661Z,100775.59
2023-03-16T05:25:15.105Z,100777.75
2023-03-16T05:27:46.280Z,100772.13
2023-03-16T05:30:20.019Z,100769.81
2023-03-16T05:32:48.123Z,100764.16
2023-03-16T05:35:16.502Z,100768.00
2023-03-16T05:37:44.852Z,100763.25
2023-03-16T05:40:18.868Z,100749.75
2023-03-16T05:42:57.324Z,100753.94
2023-03-16T05:45:25.930Z,100755.25
2023-03-16T05:48:06.264Z,100752.09
2023-03-16T05:50:37.417Z,100754.16
2023-03-16T05:53:05.266Z,100746.00
2023-03-16T05:55:34.649Z,100746.47
2023-03-16T05:58:05.677Z,100744.13
2023-03-16T06:00:36.248Z,100736.78
2023-03-16T06:03:16.898Z,100740.50
2023-03-16T06:05:44.946Z,100737.31
2023-03-16T06:08:16.235Z,100740.28
2023-03-16T06:10:50.286Z,100742.44
2023-03-16T06:13:21.438Z,100738.41
2023-03-16T06:15:50.491Z,100733.69
2023-03-16T06:18:18.330Z,100742.75
2023-03-16T06:20:47.244Z,100740.34
2023-03-16T06:23:16.240Z,100734.66
2023-03-16T06:25:44.840Z,100735.13
2023-03-16T06:28:13.974Z,100735.25
2023-03-16T06:30:41.843Z,100736.31
2023-03-16T06:33:12.817Z,100732.75
2023-03-16T06:35:41.759Z,100740.34
2023-03-16T06:38:18.494Z,100733.94
2023-03-16T06:40:57.050Z,100731.56
2023-03-16T06:43:26.489Z,100733.59
2023-03-16T06:45:55.048Z,100724.78
2023-03-16T06:48:24.313Z,100725.72
2023-03-16T06:50:52.053Z,100730.69
2023-03-16T06:53:23.800Z,100720.31
2023-03-16T06:55:52.941Z,100729.94
2023-03-16T06:58:21.195Z,100728.34
2023-03-16T07:00:51.295Z,100725.13
2023-03-16T07:03:19.842Z,100726.88
2023-03-16T07:05:54.298Z,100730.44
2023-03-16T07:08:22.183Z,100727.28
2023-03-16T07:10:51.412Z,100730.00
2023-03-16T07:13:19.502Z,100724.69
2023-03-16T07:15:53.226Z,100731.94
2023-03-16T07:18:22.605Z,100735.59
2023-03-16T07:20:50.634Z,100738.41
2023-03-16T07:23:18.378Z,100747.75
2023-03-16T07:25:47.194Z,100743.13
2023-03-16T07:28:17.567Z,100747.41
2023-03-16T07:31:02.601Z,100743.75
2023-03-16T07:33:35.136Z,100743.88
2023-03-16T07:36:06.521Z,100738.78
2023-03-16T07:38:40.181Z,100745.72
2023-03-16T07:41:08.815Z,100741.72
2023-03-16T07:43:36.878Z,100749.88
2023-03-16T07:46:06.301Z,100741.59
2023-03-16T07:48:35.822Z,100755.34
2023-03-16T07:51:05.199Z,100752.31
2023-03-16T07:53:33.382Z,100762.69
2023-03-16T07:56:21.389Z,100762.03
2023-03-16T07:58:52.873Z,100766.59
2023-03-16T08:01:20.803Z,100752.50
2023-03-16T08:03:51.091Z,100756.53
2023-03-16T08:06:18.890Z,100749.03
2023-03-16T08:08:47.162Z,100750.28
2023-03-16T08:11:24.930Z,100746.84
2023-03-16T08:13:58.471Z,100746.00
2023-03-16T08:16:34.711Z,100743.31
2023-03-16T08:19:05.499Z,100744.97
2023-03-16T08:21:35.081Z,100730.50
2023-03-16T08:24:06.408Z,100737.44
2023-03-16T08:26:34.789Z,100739.72
2023-03-16T08:29:04.359Z,100741.09
2023-03-16T08:31:35.876Z,100736.38
2023-03-16T08:34:11.499Z,100726.34
2023-03-16T08:36:44.689Z,100731.81
2023-03-16T08:39:14.998Z,100745.53
2023-03-16T08:41:48.174Z,100745.63
2023-03-16T08:44:39.976Z,100736.81
2023-03-16T08:47:07.823Z,100726.53
2023-03-16T08:49:38.145Z,100729.81
2023-03-16T08:52:12.817Z,100726.81
2023-03-16T08:54:47.165Z,100730.50
2023-03-16T08:57:21.171Z,100724.09
2023-03-16T08:59:48.895Z,100724.94
2023-03-16T09:02:16.750Z,100731.19
2023-03-16T09:04:47.108Z,100729.59
2023-03-16T09:07:14.984Z,100728.59
2023-03-16T09:09:42.694Z,100740.31
2023-03-16T09:12:10.623Z,100735.28
2023-03-16T09:14:38.537Z,100731.53
2023-03-16T09:17:07.624Z,100728.53
2023-03-16T09:19:53.805Z,100720.19
2023-03-16T09:22:24.414Z,100718.53
2023-03-16T09:24:52.306Z,100717.66
2023-03-16T09:27:20.496Z,100726.38
2023-03-16T09:29:49.408Z,100725.66
2023-03-16T09:32:17.199Z,100722.50
2023-03-16T09:34:45.628Z,100731.03
2023-03-16T09:37:13.350Z,100719.94
2023-03-16T09:39:42.392Z,100724.50
2023-03-16T09:42:18.654Z,100712.59
2023-03-16T09:44:57.502Z,100728.44
2023-03-16T09:47:29.042Z,100718.56
2023-03-16T09:49:59.386Z,100709.63
2023-03-16T09:52:34.390Z,100729.22
2023-03-16T09:55:10.150Z,100723.06
2023-03-16T09:57:41.859Z,100715.38
2023-03-16T10:00:17.300Z,100714.00
2023-03-16T10:03:06.248Z,100718.59
2023-03-16T10:05:34.929Z,100721.94
2023-03-16T10:08:13.881Z,100721.16
2023-03-16T10:10:59.759Z,100716.06
2023-03-16T10:13:35.397Z,100710.31
2023-03-16T10:16:08.050Z,100705.50
2023-03-16T10:18:42.482Z,100709.13
2023-03-16T10:21:14.413Z,100722.69
2023-03-16T10:23:43.559Z,100714.53
2023-03-16T10:26:15.507Z,100717.13
2023-03-16T10:28:45.474Z,100726.53
2023-03-16T10:31:14.053Z,100725.31
2023-03-16T10:33:41.827Z,100711.16
2023-03-16T10:36:17.047Z,100715.13
2023-03-16T10:38:48.261Z,100702.38
2023-03-16T10:41:28.898Z,100703.09
2023-03-16T10:43:58.349Z,100685.94
2023-03-16T10:46:28.226Z,100695.94
2023-03-16T10:49:00.159Z,100701.22
2023-03-16T10:51:30.948Z,100693.53
2023-03-16T10:54:11.262Z,100701.44
2023-03-16T10:56:40.385Z,100695.41
2023-03-16T10:59:17.174Z,100678.88
2023-03-16T11:01:50.029Z,100690.06
2023-03-16T11:04:20.402Z,100688.06
2023-03-16T11:06:53.432Z,100680.34
2023-03-16T11:09:24.988Z,100686.50
2023-03-16T11:11:54.662Z,100676.19
2023-03-16T11:14:27.955Z,100669.56
2023-03-16T11:17:03.108Z,100675.94
2023-03-16T11:19:32.998Z,100659.59
2023-03-16T11:22:04.978Z,100655.75
2023-03-16T11:24:43.531Z,100653.44
2023-03-16T11:27:23.070Z,100656.22
2023-03-16T11:30:00.720Z,100656.81
2023-03-16T11:32:34.466Z,100657.53
2023-03-16T11:35:04.601Z,100666.63
2023-03-16T11:37:49.651Z,100662.06
2023-03-16T11:40:33.154Z,100659.91
2023-03-16T11:43:13.121Z,100647.56
2023-03-16T11:45:48.492Z,100658.16
2023-03-16T11:48:30.390Z,100665.28
2023-03-16T11:51:05.139Z,100647.56
2023-03-16T11:53:50.993Z,100650.84
2023-03-16T11:56:34.682Z,100644.63
2023-03-16T11:59:22.528Z,100657.59
2023-03-16T12:02:02.249Z,100646.97
2023-03-16T12:04:45.081Z,100655.50
2023-03-16T12:07:31.591Z,100654.97
2023-03-16T12:10:25.993Z,100657.22
2023-03-16T12:13:30.863Z,100651.50
2023-03-16T12:16:05.668Z,100654.38
2023-03-16T12:18:43.654Z,100644.88
2023-03-16T12:21:15.525Z,100634.72
2023-03-16T12:23:57.770Z,100623.72
2023-03-16T12:26:29.776Z,100612.88
2023-03-16T12:28:59.942Z,100612.53
2023-03-16T12:31:40.972Z,100616.34
2023-03-16T12:34:15.060Z,100598.38
2023-03-16T12:37:03.352Z,100591.47
2023-03-16T12:39:48.783Z,100595.34
2023-03-16T12:42:55.234Z,100582.84
2023-03-16T12:45:33.462Z,100580.84
2023-03-16T12:48:13.302Z,100583.25
2023-03-16T12:50:50.820Z,100573.34
2023-03-16T12:53:43.358Z,100575.34
2023-03-16T12:56:13.136Z,100572.66
2023-03-16T12:58:47.050Z,100564.56
2023-03-16T13:01:16.870Z,100561.59
2023-03-16T13:03:48.623Z,100556.47
2023-03-16T13:06:23.771Z,100559.22
2023-03-16T13:08:57.744Z,100550.69
2023-03-16T13:11:25.557Z,100537.31
2023-03-16T13:14:07.310Z,100550.59
2023-03-16T13:16:37.468Z,100545.75
2023-03-16T13:19:26.297Z,100525.63
2023-03-16T13:22:06.890Z,100534.59
2023-03-16T13:24:40.809Z,100519.78
2023-03-16T13:27:22.324Z,100528.75
2023-03-16T13:29:58.561Z,100521.78
2023-03-16T13:32:30.934Z,100520.44
2023-03-16T13:35:02.291Z,100512.56
2023-03-16T13:37:31.101Z,100510.91
2023-03-16T13:40:04.186Z,100501.03
2023-03-16T13:42:33.190Z,100506.53
2023-03-16T13:45:14.178Z,100502.41
2023-03-16T13:47:44.087Z,100507.47
2023-03-16T13:50:14.963Z,100502.91
2023-03-16T13:52:44.582Z,100491.63
2023-03-16T13:55:18.088Z,100486.94
2023-03-16T13:57:47.442Z,100480.44
2023-03-16T14:00:20.130Z,100468.72
2023-03-16T14:02:51.987Z,100467.09
2023-03-16T14:05:24.403Z,100461.94
2023-03-16T14:07:53.178Z,100464.59
2023-03-16T14:10:22.063Z,100445.91
2023-03-16T14:12:54.127Z,100440.00
2023-03-16T14:15:23.819Z,100439.34
2023-03-16T14:17:51.887Z,100437.13
2023-03-16T14:20:23.237Z,100430.94
2023-03-16T14:22:53.298Z,100423.59
2023-03-16T14:25:24.150Z,100420.44
2023-03-16T14:27:59.808Z,100417.41
2023-03-16T14:30:30.260Z,100405.19
2023-03-16T14:33:00.460Z,100412.25
2023-03-16T14:35:32.279Z,100406.13
2023-03-16T14:38:29.559Z,100392.13
2023-03-16T14:40:58.986Z,100399.03
2023-03-16T14:43:32.660Z,100402.69
2023-03-16T14:46:01.569Z,100407.16
2023-03-16T14:48:30.282Z,100376.63
2023-03-16T14:51:02.043Z,100394.00
2023-03-16T14:53:30.052Z,100384.25
2023-03-16T14:55:58.414Z,100382.66
2023-03-16T14:58:26.590Z,100374.59
2023-03-16T15:00:55.353Z,100386.34
2023-03-16T15:03:28.355Z,100371.44
2023-03-16T15:05:56.128Z,100364.25
2023-03-16T15:08:28.517Z,100353.47
2023-03-16T15:11:00.764Z,100356.97
2023-03-16T15:13:53.051Z,100341.75
2023-03-16T15:16:22.967Z,100337.94
2023-03-16T15:18:51.820Z,100335.44
2023-03-16T15:21:23.308Z,100338.47
2023-03-16T15:23:52.569Z,100340.19
2023-03-16T15:26:27.219Z,100331.97
2023-03-16T15:28:56.424Z,100329.41
2023-03-16T15:31:24.964Z,100326.38
2023-03-16T15:33:52.854Z,100334.31
2023-03-16T15:36:24.171Z,100331.69
2023-03-16T15:38:55.672Z,100318.63
2023-03-16T15:41:24.872Z,100304.41
2023-03-16T15:43:52.886Z,100313.81
2023-03-16T15:46:20.835Z,100291.28
2023-03-16T15:48:48.556Z,100292.47
2023-03-16T15:51:22.648Z,100288.66
2023-03-16T15:53:54.282Z,100271.78
2023-03-16T15:56:29.860Z,100290.03
2023-03-16T15:59:00.902Z,100290.56
2023-03-16T16:01:31.929Z,100284.47
2023-03-16T16:03:59.838Z,100283.81
2023-03-16T16:06:28.576Z,100269.59
2023-03-16T16:08:57.667Z,100265.31
2023-03-16T16:11:28.591Z,100269.47
2023-03-16T16:13:57.506Z,100273.28
2023-03-16T16:16:28.702Z,100278.63
2023-03-16T16:18:57.247Z,100286.72
2023-03-16T16:21:27.985Z,100279.78
2023-03-16T16:23:57.263Z,100285.59
2023-03-16T16:26:47.038Z,100285.91
2023-03-16T16:29:18.423Z,100276.34
2023-03-16T16:31:46.551Z,100278.16
2023-03-16T16:34:17.827Z,100256.19
2023-03-16T16:36:45.971Z,100257.50
2023-03-16T16:39:15.543Z,100259.63
2023-03-16T16:41:44.220Z,100247.41
2023-03-16T16:44:17.188Z,100253.03
2023-03-16T16:46:45.024Z,100250.03
2023-03-16T16:49:16.598Z,100241.09
2023-03-16T16:51:44.552Z,100236.31
2023-03-16T16:54:18.899Z,100236.78
2023-03-16T16:56:47.628Z,100229.53
2023-03-16T16:59:18.601Z,100231.00
2023-03-16T17:01:47.471Z,100235.94
2023-03-16T17:04:17.454Z,100226.50
2023-03-16T17:06:46.651Z,100240.66
2023-03-16T17:09:16.141Z,100239.31
2023-03-16T17:11:45.606Z,100239.75
2023-03-16T17:14:17.895Z,100242.22
2023-03-16T17:16:47.140Z,100238.56
2023-03-16T17:19:21.307Z,100233.44
2023-03-16T17:21:49.093Z,100234.41
2023-03-16T17:24:18.870Z,100237.81
2023-03-16T17:26:49.514Z,100236.94
2023-03-16T17:29:22.528Z,100237.06
2023-03-16T17:31:51.388Z,100237.19
2023-03-16T17:34:21.770Z,100230.34
2023-03-16T17:36:49.762Z,100232.78
2023-03-16T17:39:21.904Z,100228.13
2023-03-16T17:41:52.274Z,100238.13
2023-03-16T17:44:21.350Z,100224.47
2023-03-16T17:46:49.663Z,100236.25
2023-03-16T17:49:19.983Z,100233.28
2023-03-16T17:51:47.800Z,100234.72
2023-03-16T17:54:15.635Z,100238.75
2023-03-16T17:56:45.940Z,100236.88
2023-03-16T17:59:18.332Z,100226.47
2023-03-16T18:01:47.533Z,100227.44
2023-03-16T18:04:17.876Z,100229.53
2023-03-16T18:06:47.390Z,100220.56
2023-03-16T18:09:15.809Z,100225.19
2023-03-16T18:11:47.711Z,100223.97
2023-03-16T18:14:25.421Z,100233.97
2023-03-16T18:16:54.654Z,100232.91
2023-03-16T18:19:25.686Z,100231.69
2023-03-16T18:21:54.041Z,100232.28
2023-03-16T18:24:25.517Z,100238.13
2023-03-16T18:26:55.207Z,100221.28
2023-03-16T18:29:23.978Z,100235.72
2023-03-16T18:31:55.327Z,100232.69
2023-03-16T18:34:25.308Z,100231.19
2023-03-16T18:36:54.853Z,100211.13
2023-03-16T18:39:23.287Z,100221.19
2023-03-16T18:41:51.145Z,100224.66
2023-03-16T18:44:22.413Z,100225.03
2023-03-16T18:46:51.901Z,100225.44
2023-03-16T18:49:23.269Z,100220.69
2023-03-16T18:51:53.262Z,100230.63
2023-03-16T18:54:23.503Z,100227.84
2023-03-16T18:56:51.873Z,100235.69
2023-03-16T18:59:21.528Z,100242.28
2023-03-16T19:01:49.516Z,100239.09
2023-03-16T19:04:21.437Z,100231.56
2023-03-16T19:06:50.121Z,100224.03
2023-03-16T19:09:21.330Z,100219.31
2023-03-16T19:11:50.481Z,100216.22
2023-03-16T19:14:20.495Z,100214.28
2023-03-16T19:16:49.942Z,100215.78
2023-03-16T19:19:21.211Z,100218.25
2023-03-16T19:21:50.366Z,100216.16
2023-03-16T19:24:23.301Z,100220.59
2023-03-16T19:26:51.915Z,100222.75
2023-03-16T19:29:21.110Z,100211.25
2023-03-16T19:31:50.968Z,100214.84
2023-03-16T19:34:19.418Z,100205.00
2023-03-16T19:36:47.312Z,100203.34
2023-03-16T19:39:16.917Z,100197.41
2023-03-16T19:41:46.476Z,100199.19
2023-03-16T19:44:17.847Z,100190.66
2023-03-16T19:46:46.573Z,100194.25
2023-03-16T19:49:19.664Z,100179.38
2023-03-16T19:51:47.529Z,100186.28
2023-03-16T19:54:22.128Z,100184.97
2023-03-16T19:56:50.095Z,100193.28
2023-03-16T19:59:18.807Z,100192.09
2023-03-16T20:01:47.088Z,100173.91
2023-03-16T20:04:18.441Z,100181.41
2023-03-16T20:06:48.729Z,100181.34
2023-03-16T20:09:17.538Z,100180.28
2023-03-16T20:11:46.620Z,100186.44
2023-03-16T20:14:21.356Z,100178.63
2023-03-16T20:16:49.193Z,100175.75
2023-03-16T20:19:20.238Z,100166.66
2023-03-16T20:21:49.808Z,100174.00
2023-03-16T20:24:20.830Z,100174.59
2023-03-16T20:26:51.290Z,100172.41
2023-03-16T20:29:24.984Z,100178.94
2023-03-16T20:31:52.802Z,100170.63
2023-03-16T20:34:24.054Z,100177.88
2023-03-16T20:36:51.802Z,100175.25
2023-03-16T20:39:19.552Z,100173.97
2023-03-16T20:41:47.413Z,100167.00
2023-03-16T20:44:18.113Z,100152.53
2023-03-16T20:46:46.984Z,100151.66
2023-03-16T20:49:32.325Z,100144.13
2023-03-16T20:52:00.106Z,100136.66
2023-03-16T20:54:28.395Z,100131.91
2023-03-16T20:56:56.192Z,100123.41
2023-03-16T20:59:26.421Z,100131.97
2023-03-16T21:01:55.941Z,100128.53
2023-03-16T21:04:27.871Z,100123.81
2023-03-16T21:06:56.818Z,100122.50
2023-03-16T21:09:24.824Z,100117.94
2023-03-16T21:11:52.959Z,100109.56
2023-03-16T21:14:24.269Z,100116.50
2023-03-16T21:16:54.149Z,100105.00
2023-03-16T21:19:23.935Z,100108.13
2023-03-16T21:21:53.237Z,100107.84
2023-03-16T21:24:21.056Z,100106.72
2023-03-16T21:26:49.071Z,100102.28
2023-03-16T21:29:21.124Z,100084.72
2023-03-16T21:31:49.422Z,100086.19
2023-03-16T21:34:24.135Z,100076.81
2023-03-16T21:36:53.324Z,100074.31
2023-03-16T21:39:25.233Z,100078.91
2023-03-16T21:41:53.657Z,100070.47
2023-03-16T21:44:21.738Z,100066.66
2023-03-16T21:46:49.624Z,100073.88
2023-03-16T21:49:18.032Z,100067.13
2023-03-16T21:51:45.880Z,100068.13
2023-03-16T21:54:16.255Z,100054.97
2023-03-16T21:56:44.471Z,100047.91
2023-03-16T21:59:13.017Z,100047.75
2023-03-16T22:01:58.342Z,100041.19
2023-03-16T22:04:28.379Z,100036.75
2023-03-16T22:06:56.206Z,100036.63
2023-03-16T22:09:29.856Z,100045.00
2023-03-16T22:11:57.759Z,100041.94
2023-03-16T22:14:25.574Z,100008.81
2023-03-16T22:16:53.343Z,100025.38
2023-03-16T22:19:21.357Z,100029.34
2023-03-16T22:21:49.903Z,100022.13
2023-03-16T22:24:20.361Z,100023.78
2023-03-16T22:26:50.813Z,100021.00
2023-03-16T22:29:23.240Z,100025.44
2023-03-16T22:31:53.687Z,100032.16
2023-03-16T22:34:28.315Z,100033.16
2023-03-16T22:36:56.706Z,100029.03
2023-03-16T22:39:25.007Z,100029.47
2023-03-16T22:41:54.145Z,100024.84
2023-03-16T22:44:23.491Z,100026.44
2023-03-16T22:46:51.436Z,100026.91
2023-03-16T22:49:22.106Z,100013.25
2023-03-16T22:51:52.428Z,100000.03
2023-03-16T22:54:23.367Z,100004.94
2023-03-16T22:56:51.499Z,99997.53
2023-03-16T22:59:25.563Z,99995.50
2023-03-16T23:01:53.387Z,99985.44
2023-03-16T23:04:24.436Z,99973.41
2023-03-16T23:06:54.288Z,99974.41
2023-03-16T23:09:22.667Z,99958.25
2023-03-16T23:11:53.963Z,99958.25
2023-03-16T23:14:25.095Z,99968.16
2023-03-16T23:16:53.595Z,99963.91
2023-03-16T23:19:25.584Z,99968.97
2023-03-16T23:21:55.769Z,99957.00
2023-03-16T23:24:23.979Z,99962.09
2023-03-16T23:26:52.753Z,99965.53
2023-03-16T23:29:21.610Z,99985.59
2023-03-16T23:31:51.376Z,99984.59
2023-03-16T23:34:22.587Z,99974.25
2023-03-16T23:36:50.812Z,99982.94
2023-03-16T23:39:19.084Z,99991.31
2023-03-16T23:41:48.789Z,99995.06
2023-03-16T23:44:18.645Z,99984.03
2023-03-16T23:46:46.938Z,99981.84
2023-03-16T23:49:21.500Z,99991.72
2023-03-16T23:51:49.622Z,99992.00
2023-03-16T23:54:20.634Z,99979.84
2023-03-16T23:56:48.548Z,99984.25
2023-03-16T23:59:16.838Z,99982.47
